Terminal Aerodrome Forecast
Issued by NWS

Home | Current Version | Previous Version | Text Only | Print | Product List | Glossary On
Versions: 1 2 3 4 5 6 7 8 9 10 11 12 13 14
000
FTUS42 TJSJ 240500 RRA
TAFJPS
TAF
TJPS 240544Z 2406/2506 09005KT P6SM FEW030
     FM241500 13012G20KT P6SM VCSH SCT030 SCT060
     FM242200 05005KT P6SM -SHRA SCT020 BKN050=

USA.gov is the U.S. government's official web portal to all federal, state and local government web resources and services.